sensor_id;sensor_type;location;lat;lon;timestamp;pressure;altitude;pressure_sealevel;temperature;humidity
71970;BME280;59838;52.152;5.436;2022-12-18T00:02:09;103011.41;;;-4.24;100.00
71970;BME280;59838;52.152;5.436;2022-12-18T00:04:35;103005.50;;;-4.24;100.00
71970;BME280;59838;52.152;5.436;2022-12-18T00:07:02;103009.78;;;-4.28;100.00
71970;BME280;59838;52.152;5.436;2022-12-18T00:09:29;103006.50;;;-4.33;100.00
71970;BME280;59838;52.152;5.436;2022-12-18T00:12:05;102994.78;;;-4.37;100.00
71970;BME280;59838;52.152;5.436;2022-12-18T00:14:41;103000.78;;;-4.43;100.00
71970;BME280;59838;52.152;5.436;2022-12-18T00:17:08;103002.53;;;-4.45;100.00
71970;BME280;59838;52.152;5.436;2022-12-18T00:19:34;103002.59;;;-4.48;100.00
71970;BME280;59838;52.152;5.436;2022-12-18T00:22:00;103003.56;;;-4.53;100.00
71970;BME280;59838;52.152;5.436;2022-12-18T00:24:27;103000.16;;;-4.52;100.00
71970;BME280;59838;52.152;5.436;2022-12-18T00:26:53;103009.31;;;-4.45;100.00
71970;BME280;59838;52.152;5.436;2022-12-18T00:29:20;103005.84;;;-4.41;100.00
71970;BME280;59838;52.152;5.436;2022-12-18T00:31:46;103010.06;;;-4.40;100.00
71970;BME280;59838;52.152;5.436;2022-12-18T00:34:13;102999.16;;;-4.44;100.00
71970;BME280;59838;52.152;5.436;2022-12-18T00:36:40;102998.25;;;-4.43;100.00
71970;BME280;59838;52.152;5.436;2022-12-18T00:39:07;102991.53;;;-4.44;100.00
71970;BME280;59838;52.152;5.436;2022-12-18T00:41:34;102996.63;;;-4.45;100.00
71970;BME280;59838;52.152;5.436;2022-12-18T00:44:19;102990.69;;;-4.46;100.00
71970;BME280;59838;52.152;5.436;2022-12-18T00:46:46;102991.59;;;-4.47;100.00
71970;BME280;59838;52.152;5.436;2022-12-18T00:49:15;103003.38;;;-4.46;100.00
71970;BME280;59838;52.152;5.436;2022-12-18T00:51:41;103008.47;;;-4.46;100.00
71970;BME280;59838;52.152;5.436;2022-12-18T00:54:09;102999.28;;;-4.51;100.00
71970;BME280;59838;52.152;5.436;2022-12-18T00:56:37;103000.31;;;-4.62;100.00
71970;BME280;59838;52.152;5.436;2022-12-18T00:59:14;103001.16;;;-4.60;100.00
71970;BME280;59838;52.152;5.436;2022-12-18T01:01:40;102992.59;;;-4.55;100.00
71970;BME280;59838;52.152;5.436;2022-12-18T01:04:07;102989.22;;;-4.56;100.00
71970;BME280;59838;52.152;5.436;2022-12-18T01:06:34;102997.69;;;-4.57;100.00
71970;BME280;59838;52.152;5.436;2022-12-18T01:09:01;102985.97;;;-4.61;100.00
71970;BME280;59838;52.152;5.436;2022-12-18T01:11:27;102991.03;;;-4.61;100.00
71970;BME280;59838;52.152;5.436;2022-12-18T01:13:54;102985.16;;;-4.63;100.00
71970;BME280;59838;52.152;5.436;2022-12-18T01:16:21;102991.19;;;-4.70;100.00
71970;BME280;59838;52.152;5.436;2022-12-18T01:18:52;102991.19;;;-4.70;100.00
71970;BME280;59838;52.152;5.436;2022-12-18T01:21:19;102993.66;;;-4.66;100.00
71970;BME280;59838;52.152;5.436;2022-12-18T01:23:46;102997.03;;;-4.67;100.00
71970;BME280;59838;52.152;5.436;2022-12-18T01:26:15;102999.56;;;-4.65;100.00
71970;BME280;59838;52.152;5.436;2022-12-18T01:28:43;103000.41;;;-4.65;100.00
71970;BME280;59838;52.152;5.436;2022-12-18T01:33:50;103014.81;;;-4.67;100.00
71970;BME280;59838;52.152;5.436;2022-12-18T01:36:24;103014.81;;;-4.67;100.00
71970;BME280;59838;52.152;5.436;2022-12-18T01:38:52;103017.31;;;-4.65;100.00
71970;BME280;59838;52.152;5.436;2022-12-18T01:41:22;103008.84;;;-4.64;100.00
71970;BME280;59838;52.152;5.436;2022-12-18T01:43:54;103013.09;;;-4.65;100.00
71970;BME280;59838;52.152;5.436;2022-12-18T01:46:25;103013.09;;;-4.65;100.00
71970;BME280;59838;52.152;5.436;2022-12-18T01:48:56;103011.47;;;-4.69;100.00
71970;BME280;59838;52.152;5.436;2022-12-18T01:51:25;103022.56;;;-4.73;100.00
71970;BME280;59838;52.152;5.436;2022-12-18T01:53:53;103018.34;;;-4.74;100.00
71970;BME280;59838;52.152;5.436;2022-12-18T01:56:20;103014.16;;;-4.78;100.00
71970;BME280;59838;52.152;5.436;2022-12-18T01:59:01;103014.31;;;-4.84;100.00
71970;BME280;59838;52.152;5.436;2022-12-18T02:01:30;103008.50;;;-4.92;100.00
71970;BME280;59838;52.152;5.436;2022-12-18T02:04:25;103018.81;;;-5.00;100.00
71970;BME280;59838;52.152;5.436;2022-12-18T02:09:38;103026.69;;;-5.17;100.00
71970;BME280;59838;52.152;5.436;2022-12-18T02:12:19;103036.09;;;-5.22;100.00
71970;BME280;59838;52.152;5.436;2022-12-18T02:15:05;103026.91;;;-5.29;100.00
71970;BME280;59838;52.152;5.436;2022-12-18T02:17:50;103021.91;;;-5.34;100.00
71970;BME280;59838;52.152;5.436;2022-12-18T02:20:27;103016.94;;;-5.39;100.00
71970;BME280;59838;52.152;5.436;2022-12-18T02:23:06;103022.09;;;-5.46;100.00
71970;BME280;59838;52.152;5.436;2022-12-18T02:28:33;103030.75;;;-5.58;100.00
71970;BME280;59838;52.152;5.436;2022-12-18T02:31:02;103030.78;;;-5.60;100.00
71970;BME280;59838;52.152;5.436;2022-12-18T02:33:33;103027.44;;;-5.63;100.00
71970;BME280;59838;52.152;5.436;2022-12-18T02:36:02;103029.16;;;-5.65;100.00
71970;BME280;59838;52.152;5.436;2022-12-18T02:38:31;103024.19;;;-5.70;100.00
71970;BME280;59838;52.152;5.436;2022-12-18T02:40:59;103023.41;;;-5.77;100.00
71970;BME280;59838;52.152;5.436;2022-12-18T02:43:25;103017.56;;;-5.80;100.00
71970;BME280;59838;52.152;5.436;2022-12-18T02:45:54;103013.38;;;-5.83;100.00
71970;BME280;59838;52.152;5.436;2022-12-18T02:48:32;103014.28;;;-5.87;100.00
71970;BME280;59838;52.152;5.436;2022-12-18T02:51:17;103005.91;;;-5.92;100.00
71970;BME280;59838;52.152;5.436;2022-12-18T02:54:03;102996.75;;;-5.99;100.00
71970;BME280;59838;52.152;5.436;2022-12-18T02:56:40;103012.00;;;-6.02;100.00
71970;BME280;59838;52.152;5.436;2022-12-18T02:59:18;103006.13;;;-6.04;100.00
71970;BME280;59838;52.152;5.436;2022-12-18T03:02:01;102995.19;;;-6.07;100.00
71970;BME280;59838;52.152;5.436;2022-12-18T03:04:39;102996.91;;;-6.09;100.00
71970;BME280;59838;52.152;5.436;2022-12-18T03:07:13;102993.53;;;-6.11;100.00
71970;BME280;59838;52.152;5.436;2022-12-18T03:09:45;102986.03;;;-6.15;100.00
71970;BME280;59838;52.152;5.436;2022-12-18T03:12:18;102991.13;;;-6.17;100.00
71970;BME280;59838;52.152;5.436;2022-12-18T03:14:59;102986.13;;;-6.23;100.00
71970;BME280;59838;52.152;5.436;2022-12-18T03:17:31;102987.84;;;-6.25;100.00
71970;BME280;59838;52.152;5.436;2022-12-18T03:20:03;102994.59;;;-6.27;100.00
71970;BME280;59838;52.152;5.436;2022-12-18T03:22:32;102983.72;;;-6.32;100.00
71970;BME280;59838;52.152;5.436;2022-12-18T03:25:01;102978.72;;;-6.37;100.00
71970;BME280;59838;52.152;5.436;2022-12-18T03:27:30;102982.94;;;-6.37;100.00
71970;BME280;59838;52.152;5.436;2022-12-18T03:30:07;102975.44;;;-6.44;100.00
71970;BME280;59838;52.152;5.436;2022-12-18T03:32:52;102969.59;;;-6.49;100.00
71970;BME280;59838;52.152;5.436;2022-12-18T03:35:29;102969.59;;;-6.50;100.00
71970;BME280;59838;52.152;5.436;2022-12-18T03:37:57;102968.81;;;-6.52;100.00
71970;BME280;59838;52.152;5.436;2022-12-18T03:40:32;102959.53;;;-6.55;100.00
71970;BME280;59838;52.152;5.436;2022-12-18T03:43:11;102960.44;;;-6.56;100.00
71970;BME280;59838;52.152;5.436;2022-12-18T03:45:51;102951.16;;;-6.57;100.00
71970;BME280;59838;52.152;5.436;2022-12-18T03:48:59;102952.88;;;-6.59;100.00
71970;BME280;59838;52.152;5.436;2022-12-18T03:51:28;102952.88;;;-6.59;100.00
71970;BME280;59838;52.152;5.436;2022-12-18T03:53:59;102956.25;;;-6.62;100.00
71970;BME280;59838;52.152;5.436;2022-12-18T03:56:30;102955.44;;;-6.64;100.00
71970;BME280;59838;52.152;5.436;2022-12-18T03:58:59;102957.13;;;-6.66;100.00
71970;BME280;59838;52.152;5.436;2022-12-18T04:01:33;102953.81;;;-6.69;100.00
71970;BME280;59838;52.152;5.436;2022-12-18T04:04:02;102949.63;;;-6.70;100.00
71970;BME280;59838;52.152;5.436;2022-12-18T04:06:30;102948.81;;;-6.74;100.00
71970;BME280;59838;52.152;5.436;2022-12-18T04:09:01;102943.75;;;-6.74;100.00
71970;BME280;59838;52.152;5.436;2022-12-18T04:11:27;102941.31;;;-6.78;100.00
71970;BME280;59838;52.152;5.436;2022-12-18T04:13:58;102935.41;;;-6.79;100.00
71970;BME280;59838;52.152;5.436;2022-12-18T04:16:27;102935.44;;;-6.82;100.00
71970;BME280;59838;52.152;5.436;2022-12-18T04:18:54;102930.34;;;-6.81;100.00
71970;BME280;59838;52.152;5.436;2022-12-18T04:21:21;102925.34;;;-6.84;100.00
71970;BME280;59838;52.152;5.436;2022-12-18T04:23:48;102931.22;;;-6.82;100.00
71970;BME280;59838;52.152;5.436;2022-12-18T04:26:15;102921.13;;;-6.82;100.00
71970;BME280;59838;52.152;5.436;2022-12-18T04:28:41;102921.94;;;-6.81;100.00
71970;BME280;59838;52.152;5.436;2022-12-18T04:31:08;102920.28;;;-6.84;100.00
71970;BME280;59838;52.152;5.436;2022-12-18T04:33:35;102914.41;;;-6.84;100.00
71970;BME280;59838;52.152;5.436;2022-12-18T04:36:02;102909.38;;;-6.86;100.00
71970;BME280;59838;52.152;5.436;2022-12-18T04:38:29;102919.50;;;-6.87;100.00
71970;BME280;59838;52.152;5.436;2022-12-18T04:40:56;102920.38;;;-6.88;100.00
71970;BME280;59838;52.152;5.436;2022-12-18T04:43:22;102920.41;;;-6.91;100.00
71970;BME280;59838;52.152;5.436;2022-12-18T04:45:49;102931.38;;;-6.95;100.00
71970;BME280;59838;52.152;5.436;2022-12-18T04:48:15;102944.94;;;-7.01;100.00
71970;BME280;59838;52.152;5.436;2022-12-18T04:50:41;102937.41;;;-7.07;100.00
71970;BME280;59838;52.152;5.436;2022-12-18T04:53:08;102942.50;;;-7.10;100.00
71970;BME280;59838;52.152;5.436;2022-12-18T04:55:35;102945.88;;;-7.13;100.00
71970;BME280;59838;52.152;5.436;2022-12-18T04:58:01;102945.91;;;-7.16;100.00
71970;BME280;59838;52.152;5.436;2022-12-18T05:00:28;102948.44;;;-7.18;100.00
71970;BME280;59838;52.152;5.436;2022-12-18T05:02:54;102958.59;;;-7.21;100.00
71970;BME280;59838;52.152;5.436;2022-12-18T05:05:21;102959.44;;;-7.22;100.00
71970;BME280;59838;52.152;5.436;2022-12-18T05:07:47;102964.53;;;-7.25;100.00
71970;BME280;59838;52.152;5.436;2022-12-18T05:10:14;102968.78;;;-7.28;100.00
71970;BME280;59838;52.152;5.436;2022-12-18T05:12:40;102969.63;;;-7.29;100.00
71970;BME280;59838;52.152;5.436;2022-12-18T05:15:30;102977.22;;;-7.31;100.00
71970;BME280;59838;52.152;5.436;2022-12-18T05:17:57;102980.59;;;-7.32;100.00
71970;BME280;59838;52.152;5.436;2022-12-18T05:20:25;102978.06;;;-7.32;100.00
71970;BME280;59838;52.152;5.436;2022-12-18T05:22:53;102983.09;;;-7.30;100.00
71970;BME280;59838;52.152;5.436;2022-12-18T05:25:20;102982.25;;;-7.31;100.00
71970;BME280;59838;52.152;5.436;2022-12-18T05:27:47;102986.44;;;-7.28;100.00
71970;BME280;59838;52.152;5.436;2022-12-18T05:30:14;102992.34;;;-7.29;100.00
71970;BME280;59838;52.152;5.436;2022-12-18T05:32:41;102999.94;;;-7.32;100.00
71970;BME280;59838;52.152;5.436;2022-12-18T05:35:09;103005.00;;;-7.32;100.00
71970;BME280;59838;52.152;5.436;2022-12-18T05:37:36;102995.78;;;-7.35;100.00
71970;BME280;59838;52.152;5.436;2022-12-18T05:40:09;103000.81;;;-7.35;100.00
71970;BME280;59838;52.152;5.436;2022-12-18T05:42:36;102985.69;;;-7.37;100.00
71970;BME280;59838;52.152;5.436;2022-12-18T05:45:04;102987.34;;;-7.36;100.00
71970;BME280;59838;52.152;5.436;2022-12-18T05:47:31;102978.94;;;-7.36;100.00
71970;BME280;59838;52.152;5.436;2022-12-18T05:49:57;102978.16;;;-7.43;100.00
71970;BME280;59838;52.152;5.436;2022-12-18T05:52:24;102969.81;;;-7.49;100.00
71970;BME280;59838;52.152;5.436;2022-12-18T05:54:50;102962.25;;;-7.53;100.00
71970;BME280;59838;52.152;5.436;2022-12-18T05:57:17;102969.81;;;-7.53;100.00
71970;BME280;59838;52.152;5.436;2022-12-18T05:59:43;102961.38;;;-7.51;100.00
71970;BME280;59838;52.152;5.436;2022-12-18T06:02:10;102963.91;;;-7.51;100.00
71970;BME280;59838;52.152;5.436;2022-12-18T06:04:36;102958.84;;;-7.51;100.00
71970;BME280;59838;52.152;5.436;2022-12-18T06:07:03;102965.63;;;-7.54;100.00
71970;BME280;59838;52.152;5.436;2022-12-18T06:09:29;102956.41;;;-7.56;100.00
71970;BME280;59838;52.152;5.436;2022-12-18T06:11:56;102957.22;;;-7.56;100.00
71970;BME280;59838;52.152;5.436;2022-12-18T06:14:22;102949.63;;;-7.54;100.00
71970;BME280;59838;52.152;5.436;2022-12-18T06:16:50;102951.34;;;-7.55;100.00
71970;BME280;59838;52.152;5.436;2022-12-18T06:19:17;102945.44;;;-7.55;100.00
71970;BME280;59838;52.152;5.436;2022-12-18T06:21:43;102940.41;;;-7.58;100.00
71970;BME280;59838;52.152;5.436;2022-12-18T06:24:10;102943.81;;;-7.61;100.00
71970;BME280;59838;52.152;5.436;2022-12-18T06:26:40;102945.47;;;-7.61;100.00
71970;BME280;59838;52.152;5.436;2022-12-18T06:29:06;102937.91;;;-7.61;100.00
71970;BME280;59838;52.152;5.436;2022-12-18T06:31:33;102941.31;;;-7.64;100.00
71970;BME280;59838;52.152;5.436;2022-12-18T06:34:03;102932.91;;;-7.64;100.00
71970;BME280;59838;52.152;5.436;2022-12-18T06:36:30;102925.34;;;-7.64;100.00
71970;BME280;59838;52.152;5.436;2022-12-18T06:38:56;102929.53;;;-7.65;100.00
71970;BME280;59838;52.152;5.436;2022-12-18T06:41:23;102920.31;;;-7.69;100.00
71970;BME280;59838;52.152;5.436;2022-12-18T06:43:50;102917.81;;;-7.70;100.00
71970;BME280;59838;52.152;5.436;2022-12-18T06:46:20;102920.34;;;-7.72;100.00
71970;BME280;59838;52.152;5.436;2022-12-18T06:48:49;102912.78;;;-7.75;100.00
71970;BME280;59838;52.152;5.436;2022-12-18T06:51:20;102914.50;;;-7.77;100.00
71970;BME280;59838;52.152;5.436;2022-12-18T06:53:47;102908.59;;;-7.76;100.00
71970;BME280;59838;52.152;5.436;2022-12-18T06:56:13;102903.53;;;-7.76;100.00
71970;BME280;59838;52.152;5.436;2022-12-18T06:58:40;102895.13;;;-7.75;100.00
71970;BME280;59838;52.152;5.436;2022-12-18T07:01:09;102890.94;;;-7.78;100.00
71970;BME280;59838;52.152;5.436;2022-12-18T07:03:37;102892.63;;;-7.80;100.00
71970;BME280;59838;52.152;5.436;2022-12-18T07:06:05;102901.03;;;-7.81;100.00
71970;BME280;59838;52.152;5.436;2022-12-18T07:08:33;102885.91;;;-7.79;100.00
71970;BME280;59838;52.152;5.436;2022-12-18T07:11:03;102891.81;;;-7.80;100.00
71970;BME280;59838;52.152;5.436;2022-12-18T07:13:29;102898.50;;;-7.79;100.00
71970;BME280;59838;52.152;5.436;2022-12-18T07:16:06;102885.06;;;-7.78;100.00
71970;BME280;59838;52.152;5.436;2022-12-18T07:18:42;102880.00;;;-7.75;100.00
71970;BME280;59838;52.152;5.436;2022-12-18T07:21:11;102879.09;;;-7.73;100.00
71970;BME280;59838;52.152;5.436;2022-12-18T07:23:38;102875.72;;;-7.70;100.00
71970;BME280;59838;52.152;5.436;2022-12-18T07:26:10;102877.44;;;-7.70;100.00
71970;BME280;59838;52.152;5.436;2022-12-18T07:28:39;102884.94;;;-7.64;100.00
71970;BME280;59838;52.152;5.436;2022-12-18T07:31:11;102875.72;;;-7.67;100.00
71970;BME280;59838;52.152;5.436;2022-12-18T07:33:38;102879.91;;;-7.66;100.00
71970;BME280;59838;52.152;5.436;2022-12-18T07:36:07;102863.06;;;-7.64;100.00
71970;BME280;59838;52.152;5.436;2022-12-18T07:38:34;102854.66;;;-7.64;100.00
71970;BME280;59838;52.152;5.436;2022-12-18T07:41:09;102847.06;;;-7.63;100.00
71970;BME280;59838;52.152;5.436;2022-12-18T07:43:36;102860.50;;;-7.59;100.00
71970;BME280;59838;52.152;5.436;2022-12-18T07:46:05;102854.56;;;-7.57;100.00
71970;BME280;59838;52.152;5.436;2022-12-18T07:48:32;102848.69;;;-7.56;100.00
71970;BME280;59838;52.152;5.436;2022-12-18T07:51:05;102850.28;;;-7.51;100.00
71970;BME280;59838;52.152;5.436;2022-12-18T07:53:33;102835.09;;;-7.47;100.00
71970;BME280;59838;52.152;5.436;2022-12-18T07:56:10;102834.22;;;-7.43;100.00
71970;BME280;59838;52.152;5.436;2022-12-18T07:58:56;102825.75;;;-7.39;100.00
71970;BME280;59838;52.152;5.436;2022-12-18T08:01:22;102825.72;;;-7.34;100.00
71970;BME280;59838;52.152;5.436;2022-12-18T08:03:49;102826.50;;;-7.30;100.00
71970;BME280;59838;52.152;5.436;2022-12-18T08:06:17;102827.34;;;-7.28;100.00
71970;BME280;59838;52.152;5.436;2022-12-18T08:08:44;102827.28;;;-7.22;100.00
71970;BME280;59838;52.152;5.436;2022-12-18T08:11:10;102816.25;;;-7.18;100.00
71970;BME280;59838;52.152;5.436;2022-12-18T08:13:36;102810.31;;;-7.12;100.00
71970;BME280;59838;52.152;5.436;2022-12-18T08:16:06;102808.56;;;-7.06;100.00
71970;BME280;59838;52.152;5.436;2022-12-18T08:18:34;102810.09;;;-6.97;100.00
71970;BME280;59838;52.152;5.436;2022-12-18T08:21:15;102819.31;;;-6.91;100.00
71970;BME280;59838;52.152;5.436;2022-12-18T08:23:42;102820.88;;;-6.84;100.00
71970;BME280;59838;52.152;5.436;2022-12-18T08:26:10;102825.03;;;-6.78;100.00
71970;BME280;59838;52.152;5.436;2022-12-18T08:28:37;102820.75;;;-6.73;100.00
71970;BME280;59838;52.152;5.436;2022-12-18T08:31:04;102829.91;;;-6.66;100.00
71970;BME280;59838;52.152;5.436;2022-12-18T08:33:32;102844.16;;;-6.59;100.00
71970;BME280;59838;52.152;5.436;2022-12-18T08:35:59;102834.81;;;-6.55;100.00
71970;BME280;59838;52.152;5.436;2022-12-18T08:38:26;102847.44;;;-6.54;100.00
71970;BME280;59838;52.152;5.436;2022-12-18T08:41:06;102845.72;;;-6.52;100.00
71970;BME280;59838;52.152;5.436;2022-12-18T08:43:33;102843.97;;;-6.48;100.00
71970;BME280;59838;52.152;5.436;2022-12-18T08:46:20;102825.44;;;-6.47;100.00
71970;BME280;59838;52.152;5.436;2022-12-18T08:48:47;102831.28;;;-6.44;100.00
71970;BME280;59838;52.152;5.436;2022-12-18T08:51:16;102832.00;;;-6.35;100.00
71970;BME280;59838;52.152;5.436;2022-12-18T08:53:43;102834.44;;;-6.31;100.00
71970;BME280;59838;52.152;5.436;2022-12-18T08:56:11;102831.84;;;-6.26;100.00
71970;BME280;59838;52.152;5.436;2022-12-18T08:58:38;102829.22;;;-6.18;100.00
71970;BME280;59838;52.152;5.436;2022-12-18T09:01:06;102830.78;;;-6.13;100.00
71970;BME280;59838;52.152;5.436;2022-12-18T09:03:33;102836.53;;;-6.03;100.00
71970;BME280;59838;52.152;5.436;2022-12-18T09:05:59;102838.97;;;-5.97;100.00
71970;BME280;59838;52.152;5.436;2022-12-18T09:08:26;102848.94;;;-5.89;100.00
71970;BME280;59838;52.152;5.436;2022-12-18T09:10:53;102837.84;;;-5.82;100.00
71970;BME280;59838;52.152;5.436;2022-12-18T09:13:20;102822.56;;;-5.77;100.00
71970;BME280;59838;52.152;5.436;2022-12-18T09:15:52;102831.69;;;-5.69;100.00
71970;BME280;59838;52.152;5.436;2022-12-18T09:18:20;102819.72;;;-5.59;100.00
71970;BME280;59838;52.152;5.436;2022-12-18T09:20:47;102822.03;;;-5.48;100.00
71970;BME280;59838;52.152;5.436;2022-12-18T09:23:14;102812.56;;;-5.38;100.00
71970;BME280;59838;52.152;5.436;2022-12-18T09:25:40;102817.53;;;-5.34;100.00
71970;BME280;59838;52.152;5.436;2022-12-18T09:28:15;102817.34;;;-5.24;100.00
71970;BME280;59838;52.152;5.436;2022-12-18T09:30:44;102820.59;;;-5.18;100.00
71970;BME280;59838;52.152;5.436;2022-12-18T09:33:11;102821.34;;;-5.12;100.00
71970;BME280;59838;52.152;5.436;2022-12-18T09:35:38;102826.28;;;-5.06;100.00
71970;BME280;59838;52.152;5.436;2022-12-18T09:38:05;102810.91;;;-4.99;100.00
71970;BME280;59838;52.152;5.436;2022-12-18T09:40:43;102796.38;;;-4.90;100.00
71970;BME280;59838;52.152;5.436;2022-12-18T09:43:20;102793.63;;;-4.81;100.00
71970;BME280;59838;52.152;5.436;2022-12-18T09:45:53;102794.31;;;-4.73;100.00
71970;BME280;59838;52.152;5.436;2022-12-18T09:48:31;102787.25;;;-4.62;100.00
71970;BME280;59838;52.152;5.436;2022-12-18T09:51:03;102789.63;;;-4.54;100.00
71970;BME280;59838;52.152;5.436;2022-12-18T09:53:35;102790.31;;;-4.47;100.00
71970;BME280;59838;52.152;5.436;2022-12-18T09:56:04;102778.34;;;-4.41;100.00
71970;BME280;59838;52.152;5.436;2022-12-18T09:58:36;102764.56;;;-4.32;100.00
71970;BME280;59838;52.152;5.436;2022-12-18T10:01:12;102762.69;;;-4.24;100.00
71970;BME280;59838;52.152;5.436;2022-12-18T10:03:40;102769.19;;;-4.13;100.00
71970;BME280;59838;52.152;5.436;2022-12-18T10:06:14;102769.03;;;-4.07;100.00
71970;BME280;59838;52.152;5.436;2022-12-18T10:09:14;102767.13;;;-3.99;100.00
71970;BME280;59838;52.152;5.436;2022-12-18T10:17:22;102758.06;;;-3.76;100.00
71970;BME280;59838;52.152;5.436;2022-12-18T10:19:56;102758.75;;;-3.71;99.93
71970;BME280;59838;52.152;5.436;2022-12-18T10:27:42;102754.97;;;-3.56;99.11
71970;BME280;59838;52.152;5.436;2022-12-18T10:30:15;102757.31;;;-3.50;98.64
71970;BME280;59838;52.152;5.436;2022-12-18T10:32:42;102753.00;;;-3.46;98.98
71970;BME280;59838;52.152;5.436;2022-12-18T10:35:19;102749.50;;;-3.42;98.59
71970;BME280;59838;52.152;5.436;2022-12-18T10:40:30;102736.47;;;-3.32;98.30
71970;BME280;59838;52.152;5.436;2022-12-18T10:43:05;102750.75;;;-3.27;98.22
71970;BME280;59838;52.152;5.436;2022-12-18T10:45:36;102742.16;;;-3.23;98.04
71970;BME280;59838;52.152;5.436;2022-12-18T10:48:03;102746.22;;;-3.18;98.04
71970;BME280;59838;52.152;5.436;2022-12-18T10:50:35;102730.88;;;-3.15;98.30
71970;BME280;59838;52.152;5.436;2022-12-18T10:53:28;102728.19;;;-3.10;97.91
71970;BME280;59838;52.152;5.436;2022-12-18T10:56:00;102733.09;;;-3.04;97.71
71970;BME280;59838;52.152;5.436;2022-12-18T10:58:30;102727.88;;;-2.99;97.82
71970;BME280;59838;52.152;5.436;2022-12-18T11:01:12;102720.94;;;-2.94;96.98
71970;BME280;59838;52.152;5.436;2022-12-18T11:03:45;102711.50;;;-2.90;96.24
71970;BME280;59838;52.152;5.436;2022-12-18T11:06:14;102711.34;;;-2.86;96.10
71970;BME280;59838;52.152;5.436;2022-12-18T11:08:43;102701.91;;;-2.82;95.99
71970;BME280;59838;52.152;5.436;2022-12-18T11:11:23;102702.59;;;-2.77;95.70
71970;BME280;59838;52.152;5.436;2022-12-18T11:14:19;102692.31;;;-2.74;94.52
71970;BME280;59838;52.152;5.436;2022-12-18T11:16:49;102677.81;;;-2.70;94.51
71970;BME280;59838;52.152;5.436;2022-12-18T11:19:37;102688.66;;;-2.65;94.07
71970;BME280;59838;52.152;5.436;2022-12-18T11:24:55;102679.72;;;-2.52;94.02
71970;BME280;59838;52.152;5.436;2022-12-18T11:30:36;102660.81;;;-2.45;92.27
71970;BME280;59838;52.152;5.436;2022-12-18T11:33:21;102669.13;;;-2.40;92.38
71970;BME280;59838;52.152;5.436;2022-12-18T11:35:52;102662.13;;;-2.33;92.24
71970;BME280;59838;52.152;5.436;2022-12-18T11:38:28;102668.75;;;-2.29;92.50
71970;BME280;59838;52.152;5.436;2022-12-18T11:43:59;102667.56;;;-2.18;92.65
71970;BME280;59838;52.152;5.436;2022-12-18T11:46:34;102673.38;;;-2.15;92.68
71970;BME280;59838;52.152;5.436;2022-12-18T11:49:15;102669.81;;;-2.11;92.29
71970;BME280;59838;52.152;5.436;2022-12-18T11:51:56;102654.44;;;-2.08;91.33
71970;BME280;59838;52.152;5.436;2022-12-18T11:54:26;102651.72;;;-2.03;91.05
71970;BME280;59838;52.152;5.436;2022-12-18T11:56:56;102648.25;;;-2.00;91.20
71970;BME280;59838;52.152;5.436;2022-12-18T11:59:38;102638.81;;;-1.98;90.92
71970;BME280;59838;52.152;5.436;2022-12-18T12:05:18;102636.88;;;-1.92;90.82
71970;BME280;59838;52.152;5.436;2022-12-18T12:07:55;102630.78;;;-1.88;90.91
71970;BME280;59838;52.152;5.436;2022-12-18T12:10:46;102610.34;;;-1.86;91.09
71970;BME280;59838;52.152;5.436;2022-12-18T12:13:23;102602.72;;;-1.86;90.06
71970;BME280;59838;52.152;5.436;2022-12-18T12:15:58;102601.81;;;-1.85;90.37
71970;BME280;59838;52.152;5.436;2022-12-18T12:24:33;102595.59;;;-1.78;89.34
71970;BME280;59838;52.152;5.436;2022-12-18T12:27:30;102592.09;;;-1.75;89.53
71970;BME280;59838;52.152;5.436;2022-12-18T12:30:11;102584.38;;;-1.74;88.93
71970;BME280;59838;52.152;5.436;2022-12-18T12:33:04;102592.69;;;-1.69;88.71
71970;BME280;59838;52.152;5.436;2022-12-18T12:38:44;102578.06;;;-1.63;88.64
71970;BME280;59838;52.152;5.436;2022-12-18T12:41:21;102579.66;;;-1.61;88.96
71970;BME280;59838;52.152;5.436;2022-12-18T12:44:16;102570.09;;;-1.56;88.50
71970;BME280;59838;52.152;5.436;2022-12-18T12:46:46;102572.59;;;-1.54;88.81
71970;BME280;59838;52.152;5.436;2022-12-18T12:49:18;102562.28;;;-1.51;88.76
71970;BME280;59838;52.152;5.436;2022-12-18T12:51:49;102562.34;;;-1.53;88.57
71970;BME280;59838;52.152;5.436;2022-12-18T12:54:19;102554.56;;;-1.50;88.10
71970;BME280;59838;52.152;5.436;2022-12-18T12:57:06;102553.75;;;-1.50;87.62
71970;BME280;59838;52.152;5.436;2022-12-18T13:02:42;102539.09;;;-1.45;88.24
71970;BME280;59838;52.152;5.436;2022-12-18T13:08:06;102547.38;;;-1.40;88.26
71970;BME280;59838;52.152;5.436;2022-12-18T13:10:39;102544.78;;;-1.38;88.32
71970;BME280;59838;52.152;5.436;2022-12-18T13:15:41;102542.16;;;-1.37;87.06
71970;BME280;59838;52.152;5.436;2022-12-18T13:18:17;102547.19;;;-1.35;86.54
71970;BME280;59838;52.152;5.436;2022-12-18T13:20:47;102546.25;;;-1.33;86.62
71970;BME280;59838;52.152;5.436;2022-12-18T13:26:00;102544.47;;;-1.31;86.52
71970;BME280;59838;52.152;5.436;2022-12-18T13:28:55;102546.97;;;-1.29;86.74
71970;BME280;59838;52.152;5.436;2022-12-18T13:34:20;102531.59;;;-1.27;86.92
71970;BME280;59838;52.152;5.436;2022-12-18T13:36:55;102528.13;;;-1.26;86.56
71970;BME280;59838;52.152;5.436;2022-12-18T13:39:24;102523.88;;;-1.26;85.95
71970;BME280;59838;52.152;5.436;2022-12-18T13:44:36;102517.94;;;-1.26;85.65
71970;BME280;59838;52.152;5.436;2022-12-18T13:49:56;102504.38;;;-1.27;85.96
71970;BME280;59838;52.152;5.436;2022-12-18T13:52:28;102494.97;;;-1.26;85.78
71970;BME280;59838;52.152;5.436;2022-12-18T13:55:01;102492.44;;;-1.26;86.11
71970;BME280;59838;52.152;5.436;2022-12-18T13:57:35;102490.72;;;-1.26;86.17
71970;BME280;59838;52.152;5.436;2022-12-18T14:00:34;102491.63;;;-1.27;86.51
71970;BME280;59838;52.152;5.436;2022-12-18T14:03:00;102484.78;;;-1.26;86.40
71970;BME280;59838;52.152;5.436;2022-12-18T14:05:37;102486.38;;;-1.24;86.69
71970;BME280;59838;52.152;5.436;2022-12-18T14:08:08;102477.84;;;-1.23;86.66